Time;durP1;ratioP1;P1;durP2;ratioP2;P2;SDS_P1;SDS_P2;PMS_P1;PMS_P2;Temp;Humidity;BMP_temperature;BMP_pressure;BME280_temperature;BME280_humidity;BME280_pressure;Samples;Min_cycle;Max_cycle;Signal;HPM_P1;HPM_P2
2023/11/22 00:01:18;;;;;;;34.35;21.67;;;4.20;99.90;;;;;;4986407;28;21862;-79
2023/11/22 00:03:45;;;;;;;29.90;20.60;;;4.20;99.90;;;;;;4983221;28;20048;-78
2023/11/22 00:06:11;;;;;;;35.35;22.70;;;4.20;99.90;;;;;;4970033;28;20042;-78
2023/11/22 00:08:38;;;;;;;29.20;19.58;;;4.10;99.90;;;;;;4985039;28;20038;-75
2023/11/22 00:11:05;;;;;;;32.30;21.35;;;4.10;99.90;;;;;;4983656;28;20037;-80
2023/11/22 00:13:32;;;;;;;29.90;19.60;;;4.10;99.90;;;;;;4982641;28;20037;-80
2023/11/22 00:15:59;;;;;;;34.30;21.05;;;4.10;99.90;;;;;;4988334;28;20034;-81
2023/11/22 00:18:26;;;;;;;32.33;20.58;;;4.10;99.90;;;;;;4974619;28;20532;-80
2023/11/22 00:20:52;;;;;;;37.97;24.13;;;4.10;99.90;;;;;;4989685;28;20489;-78
2023/11/22 00:23:18;;;;;;;35.60;23.27;;;4.10;99.90;;;;;;4988887;28;20033;-77
2023/11/22 00:25:44;;;;;;;33.90;21.67;;;4.10;99.90;;;;;;4989795;28;20044;-80
2023/11/22 00:28:11;;;;;;;35.10;21.52;;;4.10;99.90;;;;;;4970811;28;20827;-79
2023/11/22 00:30:37;;;;;;;32.40;19.77;;;4.10;99.90;;;;;;4985489;28;21536;-80
2023/11/22 00:33:04;;;;;;;39.13;25.30;;;4.00;99.90;;;;;;4981667;28;20049;-78
2023/11/22 00:35:30;;;;;;;32.60;21.88;;;4.00;99.90;;;;;;4951355;28;20045;-76
2023/11/22 00:37:58;;;;;;;35.90;21.15;;;4.10;99.90;;;;;;4983282;28;20041;-75
2023/11/22 00:40:24;;;;;;;36.10;22.25;;;4.00;99.90;;;;;;4984325;28;20042;-78
2023/11/22 00:42:50;;;;;;;36.67;23.92;;;4.00;99.90;;;;;;4966406;28;20473;-79
2023/11/22 00:45:18;;;;;;;35.63;20.92;;;4.00;99.90;;;;;;4986716;28;20623;-79
2023/11/22 00:47:44;;;;;;;29.27;18.35;;;4.00;99.90;;;;;;4987113;28;20045;-78
2023/11/22 00:50:10;;;;;;;31.17;20.13;;;4.00;99.90;;;;;;4986037;28;20029;-82
2023/11/22 00:52:37;;;;;;;31.85;21.25;;;3.90;99.90;;;;;;4961952;28;20042;-77
2023/11/22 00:55:04;;;;;;;31.42;20.90;;;3.90;99.90;;;;;;4945497;28;20048;-78
2023/11/22 00:57:30;;;;;;;33.65;20.73;;;3.90;99.90;;;;;;4958655;28;20037;-79
2023/11/22 00:59:57;;;;;;;28.00;18.15;;;3.90;99.90;;;;;;4967876;28;20537;-81
2023/11/22 01:02:23;;;;;;;30.13;20.10;;;3.90;99.90;;;;;;4995664;28;20034;-81
2023/11/22 01:04:50;;;;;;;37.88;21.92;;;3.80;99.90;;;;;;4966823;28;20038;-80
2023/11/22 01:07:16;;;;;;;35.08;21.77;;;3.80;99.90;;;;;;4983129;28;20033;-79
2023/11/22 01:09:42;;;;;;;29.67;18.52;;;3.80;99.90;;;;;;4967960;28;20049;-77
2023/11/22 01:12:09;;;;;;;34.28;21.38;;;3.80;99.90;;;;;;4979258;28;20053;-81
2023/11/22 01:14:35;;;;;;;27.90;17.77;;;3.80;99.90;;;;;;4984194;28;20532;-80
2023/11/22 01:17:02;;;;;;;29.85;18.60;;;3.80;99.90;;;;;;4979022;28;20026;-77
2023/11/22 01:19:28;;;;;;;32.10;18.48;;;3.80;99.90;;;;;;4947533;28;20400;-77
2023/11/22 01:21:55;;;;;;;28.67;18.90;;;3.80;99.90;;;;;;4964272;28;20622;-73
2023/11/22 01:24:21;;;;;;;29.90;19.05;;;3.80;99.90;;;;;;4966568;28;20700;-76
2023/11/22 01:26:47;;;;;;;29.00;18.05;;;3.70;99.90;;;;;;4982270;28;20971;-79
2023/11/22 01:29:14;;;;;;;31.08;20.02;;;3.70;99.90;;;;;;4985980;28;20037;-77
2023/11/22 01:31:41;;;;;;;33.88;21.08;;;3.70;99.90;;;;;;4982263;28;20034;-78
2023/11/22 01:34:08;;;;;;;30.27;18.70;;;3.70;99.90;;;;;;4986843;28;20045;-74
2023/11/22 01:36:34;;;;;;;39.42;22.95;;;3.70;99.90;;;;;;4962505;28;20042;-76
2023/11/22 01:39:01;;;;;;;32.45;20.20;;;3.60;99.90;;;;;;4984851;28;20133;-80
2023/11/22 01:41:30;;;;;;;31.55;19.15;;;3.70;99.90;;;;;;4965428;28;20058;-72
2023/11/22 01:43:57;;;;;;;33.15;20.60;;;3.60;99.90;;;;;;4968367;28;20042;-78
2023/11/22 01:46:25;;;;;;;33.60;20.83;;;3.60;99.90;;;;;;4984061;28;20049;-76
2023/11/22 01:48:53;;;;;;;35.78;20.75;;;3.60;99.90;;;;;;4974795;28;20838;-77
2023/11/22 01:51:21;;;;;;;31.73;18.85;;;3.60;99.90;;;;;;4959882;28;20121;-75
2023/11/22 01:53:49;;;;;;;33.72;18.58;;;3.60;99.90;;;;;;4986910;28;20038;-80
2023/11/22 01:56:17;;;;;;;29.38;16.63;;;3.60;99.90;;;;;;4970256;28;20037;-79
2023/11/22 01:58:44;;;;;;;35.58;21.83;;;3.60;99.90;;;;;;4952088;28;20037;-77
2023/11/22 02:01:12;;;;;;;27.25;17.27;;;3.60;99.90;;;;;;4989324;28;20478;-79
2023/11/22 02:03:39;;;;;;;32.72;19.50;;;3.60;99.90;;;;;;4989016;28;20045;-73
2023/11/22 02:06:06;;;;;;;28.08;17.05;;;3.50;99.90;;;;;;4990201;28;20049;-77
2023/11/22 02:08:32;;;;;;;27.90;17.05;;;3.50;99.90;;;;;;4972763;28;20276;-77
2023/11/22 02:11:00;;;;;;;25.00;15.75;;;3.50;99.90;;;;;;4973108;28;20042;-77
2023/11/22 02:13:26;;;;;;;23.77;14.95;;;3.40;99.90;;;;;;4973734;28;20032;-75
2023/11/22 02:15:55;;;;;;;27.38;16.50;;;3.40;99.90;;;;;;4987839;28;20964;-79
2023/11/22 02:18:23;;;;;;;29.75;18.25;;;3.40;99.90;;;;;;4987189;28;20033;-76
2023/11/22 02:20:50;;;;;;;31.43;18.97;;;3.40;99.90;;;;;;4991704;28;20500;-78
2023/11/22 02:23:17;;;;;;;35.33;21.13;;;3.40;99.90;;;;;;4989312;28;20048;-78
2023/11/22 02:25:43;;;;;;;32.63;19.80;;;3.40;99.90;;;;;;4990810;28;20057;-76
2023/11/22 02:28:10;;;;;;;30.48;18.77;;;3.40;99.90;;;;;;4972052;28;20041;-78
2023/11/22 02:30:36;;;;;;;33.22;19.77;;;3.40;99.90;;;;;;4989312;28;20034;-77
2023/11/22 02:33:04;;;;;;;28.85;17.83;;;3.30;99.90;;;;;;4989843;28;20046;-75
2023/11/22 02:35:34;;;;;;;37.38;21.25;;;3.40;99.90;;;;;;4989972;28;20053;-80
2023/11/22 02:38:01;;;;;;;32.33;18.20;;;3.30;99.90;;;;;;4988407;28;20030;-76
2023/11/22 02:40:28;;;;;;;28.48;17.90;;;3.30;99.90;;;;;;4990920;28;22250;-77
2023/11/22 02:42:56;;;;;;;29.92;18.58;;;3.30;99.90;;;;;;4989054;28;20045;-80
2023/11/22 02:45:26;;;;;;;34.97;18.95;;;3.30;99.90;;;;;;4987470;28;20033;-75
2023/11/22 02:47:52;;;;;;;27.63;16.23;;;3.30;99.90;;;;;;4998835;28;20038;-78
2023/11/22 02:50:19;;;;;;;31.23;18.40;;;3.30;99.90;;;;;;4971831;28;20451;-78
2023/11/22 02:52:45;;;;;;;35.65;19.80;;;3.20;99.90;;;;;;4988163;28;20529;-78
2023/11/22 02:55:12;;;;;;;30.05;18.45;;;3.20;99.90;;;;;;4991146;28;20511;-78
2023/11/22 02:57:41;;;;;;;35.47;20.23;;;3.20;99.90;;;;;;4985435;28;20041;-80
2023/11/22 03:00:14;;;;;;;34.67;20.30;;;3.20;99.90;;;;;;4974092;28;20048;-78
2023/11/22 03:02:45;;;;;;;36.50;18.60;;;3.20;99.90;;;;;;4970918;28;20048;-79
2023/11/22 03:05:14;;;;;;;33.55;19.05;;;3.20;99.90;;;;;;4974162;28;20033;-80
2023/11/22 03:07:44;;;;;;;33.22;18.42;;;3.10;99.90;;;;;;4987830;28;20022;-76
2023/11/22 03:10:10;;;;;;;37.10;19.85;;;3.10;99.90;;;;;;4945482;28;20042;-72
2023/11/22 03:12:37;;;;;;;35.97;20.25;;;3.10;99.90;;;;;;4963612;28;20044;-74
2023/11/22 03:15:04;;;;;;;40.97;21.48;;;3.10;99.90;;;;;;4970163;28;20493;-78
2023/11/22 03:17:34;;;;;;;28.73;17.10;;;3.00;99.90;;;;;;4987113;28;20022;-74
2023/11/22 03:20:01;;;;;;;28.55;16.83;;;3.00;99.90;;;;;;4957578;28;20033;-77
2023/11/22 03:22:30;;;;;;;23.55;13.82;;;3.00;99.90;;;;;;4984182;28;20578;-73
2023/11/22 03:24:58;;;;;;;24.33;14.32;;;3.00;99.90;;;;;;4987314;28;20419;-78
2023/11/22 03:27:25;;;;;;;26.45;14.95;;;2.90;99.90;;;;;;4984211;28;20038;-74
2023/11/22 03:29:51;;;;;;;24.13;14.40;;;2.90;99.90;;;;;;4985537;28;20053;-76
2023/11/22 03:32:17;;;;;;;22.35;13.30;;;2.90;99.90;;;;;;4987163;28;20416;-78
2023/11/22 03:34:45;;;;;;;20.75;13.02;;;2.90;99.90;;;;;;4956010;28;20373;-72
2023/11/22 03:37:11;;;;;;;23.40;13.68;;;2.80;99.90;;;;;;4970108;28;20490;-76
2023/11/22 03:39:38;;;;;;;26.13;14.32;;;2.80;99.90;;;;;;4969759;28;20045;-78
2023/11/22 03:42:04;;;;;;;25.08;13.35;;;2.80;99.90;;;;;;4984919;28;20061;-77
2023/11/22 03:44:31;;;;;;;22.73;12.05;;;2.80;99.90;;;;;;4987858;28;20571;-76
2023/11/22 03:46:58;;;;;;;22.77;12.82;;;2.80;99.90;;;;;;4988101;28;20038;-73
2023/11/22 03:49:24;;;;;;;24.80;13.70;;;2.70;99.90;;;;;;4990528;28;20034;-78
2023/11/22 03:51:50;;;;;;;22.73;12.55;;;2.70;99.90;;;;;;4962133;28;20034;-78
2023/11/22 03:54:16;;;;;;;24.30;13.23;;;2.70;99.90;;;;;;4985735;28;20026;-78
2023/11/22 03:56:44;;;;;;;21.98;12.15;;;2.70;99.90;;;;;;4978834;28;20026;-72
2023/11/22 03:59:10;;;;;;;21.00;12.27;;;2.70;99.90;;;;;;4986377;28;20540;-72
2023/11/22 04:01:37;;;;;;;17.42;10.45;;;2.70;99.90;;;;;;4972557;28;20480;-74
2023/11/22 04:04:03;;;;;;;19.45;10.55;;;2.70;99.90;;;;;;4992585;28;20038;-72
2023/11/22 04:06:29;;;;;;;19.35;11.25;;;2.60;99.90;;;;;;4981873;28;20041;-72
2023/11/22 04:08:56;;;;;;;18.35;9.75;;;2.60;99.90;;;;;;4969702;28;20038;-76
2023/11/22 04:11:22;;;;;;;18.52;9.88;;;2.50;99.90;;;;;;4985217;28;20116;-73
2023/11/22 04:13:48;;;;;;;17.00;10.25;;;2.60;99.90;;;;;;4970014;28;20053;-76
2023/11/22 04:16:14;;;;;;;23.60;12.87;;;2.50;99.90;;;;;;4962897;28;20649;-76
2023/11/22 04:18:41;;;;;;;23.37;12.73;;;2.50;99.90;;;;;;4992115;28;20388;-72
2023/11/22 04:21:08;;;;;;;24.98;13.00;;;2.50;99.90;;;;;;4985934;28;20041;-77
2023/11/22 04:23:36;;;;;;;25.17;12.38;;;2.50;99.90;;;;;;4985290;28;20041;-76
2023/11/22 04:26:02;;;;;;;27.08;14.48;;;2.50;99.90;;;;;;4986638;28;20034;-75
2023/11/22 04:28:29;;;;;;;28.52;14.23;;;2.50;99.90;;;;;;4987512;28;20044;-78
2023/11/22 04:30:56;;;;;;;28.23;14.32;;;2.50;99.90;;;;;;4988371;28;20532;-78
2023/11/22 04:33:24;;;;;;;25.08;14.88;;;2.50;99.90;;;;;;4954851;28;20045;-75
2023/11/22 04:35:51;;;;;;;31.20;15.38;;;2.50;99.90;;;;;;4982971;28;20049;-77
2023/11/22 04:38:17;;;;;;;28.15;15.02;;;2.50;99.90;;;;;;4983019;28;20395;-77
2023/11/22 04:40:45;;;;;;;26.33;13.38;;;2.50;99.90;;;;;;4969794;28;20037;-77
2023/11/22 04:43:11;;;;;;;22.58;12.60;;;2.50;99.90;;;;;;4960182;28;20042;-79
2023/11/22 04:45:37;;;;;;;24.92;13.35;;;2.40;99.90;;;;;;4985719;28;20037;-80
2023/11/22 04:48:04;;;;;;;24.85;13.57;;;2.40;99.90;;;;;;4987889;28;20040;-77
2023/11/22 04:50:31;;;;;;;23.35;12.63;;;2.40;99.90;;;;;;4968312;28;20045;-78
2023/11/22 04:52:57;;;;;;;25.17;12.52;;;2.40;99.90;;;;;;4984545;28;20052;-75
2023/11/22 04:55:23;;;;;;;26.45;12.93;;;2.30;99.90;;;;;;4988868;28;20057;-78
2023/11/22 04:57:50;;;;;;;22.13;11.75;;;2.30;99.90;;;;;;4971395;28;20048;-79
2023/11/22 05:00:17;;;;;;;21.23;11.93;;;2.30;99.90;;;;;;4964562;28;20040;-75
2023/11/22 05:02:44;;;;;;;21.40;11.45;;;2.30;99.90;;;;;;4986148;28;20788;-76
2023/11/22 05:05:10;;;;;;;21.35;11.43;;;2.30;99.90;;;;;;4996822;28;20037;-75
2023/11/22 05:07:37;;;;;;;24.75;12.73;;;2.30;99.90;;;;;;4979094;28;20042;-75
2023/11/22 05:10:04;;;;;;;26.08;13.23;;;2.20;99.90;;;;;;4986350;28;20029;-77
2023/11/22 05:12:31;;;;;;;20.30;11.63;;;2.20;99.90;;;;;;4984838;28;20033;-76
2023/11/22 05:14:57;;;;;;;22.60;12.70;;;2.20;99.90;;;;;;4987916;28;20045;-79
2023/11/22 05:17:23;;;;;;;19.95;11.90;;;2.20;99.90;;;;;;4982260;28;20041;-81
2023/11/22 05:19:51;;;;;;;21.92;11.07;;;2.20;99.90;;;;;;4984472;28;20038;-78
2023/11/22 05:22:17;;;;;;;17.25;9.77;;;2.10;99.90;;;;;;4983905;28;20667;-76
2023/11/22 05:24:44;;;;;;;23.20;12.90;;;2.10;99.90;;;;;;4954848;28;20046;-80
2023/11/22 05:27:10;;;;;;;22.55;12.93;;;2.10;99.90;;;;;;4986478;28;20045;-78
2023/11/22 05:29:36;;;;;;;23.70;12.50;;;2.10;99.90;;;;;;4970679;28;20040;-82
2023/11/22 05:32:03;;;;;;;27.33;13.80;;;2.10;99.90;;;;;;4982140;28;20606;-78
2023/11/22 05:34:29;;;;;;;30.23;15.80;;;2.10;99.90;;;;;;4985064;28;21210;-81
2023/11/22 05:36:56;;;;;;;26.17;14.48;;;2.10;99.90;;;;;;4988503;28;20046;-79
2023/11/22 05:39:22;;;;;;;26.60;14.30;;;2.10;99.90;;;;;;4989160;28;20044;-80
2023/11/22 05:41:50;;;;;;;28.50;14.83;;;2.20;99.90;;;;;;4990019;28;20045;-78
2023/11/22 05:44:16;;;;;;;34.90;18.80;;;2.20;99.90;;;;;;4993508;28;20042;-77
2023/11/22 05:46:42;;;;;;;38.47;18.80;;;2.20;99.90;;;;;;4990240;28;20038;-78
2023/11/22 05:49:10;;;;;;;31.98;16.63;;;2.20;99.90;;;;;;4992318;28;20044;-80
2023/11/22 05:51:37;;;;;;;27.10;14.02;;;2.20;99.90;;;;;;4992047;28;20472;-75
2023/11/22 05:54:04;;;;;;;34.03;17.42;;;2.20;99.90;;;;;;4991223;28;20038;-83
2023/11/22 05:56:30;;;;;;;35.83;16.50;;;2.30;99.90;;;;;;4971503;28;20044;-78
2023/11/22 05:58:57;;;;;;;28.50;15.73;;;2.30;99.90;;;;;;4991782;28;20037;-78
2023/11/22 06:01:24;;;;;;;32.97;15.13;;;2.30;99.90;;;;;;4972052;28;20075;-77
2023/11/22 06:03:50;;;;;;;32.97;15.80;;;2.30;99.90;;;;;;4957167;28;20050;-80
2023/11/22 06:06:17;;;;;;;29.90;16.42;;;2.30;99.90;;;;;;4985369;28;20045;-79
2023/11/22 06:08:43;;;;;;;27.95;14.30;;;2.40;99.90;;;;;;4974388;28;20037;-81
2023/11/22 06:11:09;;;;;;;37.42;19.15;;;2.40;99.90;;;;;;4989133;28;20380;-81
2023/11/22 06:13:36;;;;;;;32.58;17.10;;;2.40;99.90;;;;;;4973902;28;20424;-79
2023/11/22 06:16:02;;;;;;;37.20;18.25;;;2.40;99.90;;;;;;4972153;28;20052;-75
2023/11/22 06:18:29;;;;;;;29.88;16.23;;;2.40;99.90;;;;;;4987834;28;20041;-79
2023/11/22 06:20:56;;;;;;;28.67;14.93;;;2.40;99.90;;;;;;4967836;28;20064;-82
2023/11/22 06:23:23;;;;;;;32.00;15.65;;;2.50;99.90;;;;;;4971279;28;20068;-77
2023/11/22 06:25:49;;;;;;;34.75;17.00;;;2.50;99.90;;;;;;4990561;28;20042;-80
2023/11/22 06:28:15;;;;;;;33.60;16.35;;;2.50;99.90;;;;;;4987074;28;20037;-80
2023/11/22 06:30:42;;;;;;;30.70;15.95;;;2.50;99.90;;;;;;4961138;28;20061;-80
2023/11/22 06:33:08;;;;;;;34.70;16.40;;;2.50;99.90;;;;;;4968806;28;20042;-76
2023/11/22 06:35:36;;;;;;;32.50;15.63;;;2.50;99.90;;;;;;4989796;28;20045;-80
2023/11/22 06:38:03;;;;;;;30.17;15.70;;;2.50;99.90;;;;;;4990049;28;20065;-81
2023/11/22 06:40:32;;;;;;;31.73;14.45;;;2.50;99.90;;;;;;4956497;28;20042;-77
2023/11/22 06:42:58;;;;;;;32.50;15.15;;;2.50;99.90;;;;;;4990435;28;20038;-80
2023/11/22 06:45:25;;;;;;;27.33;13.40;;;2.50;99.90;;;;;;4963767;28;20034;-80
2023/11/22 06:47:52;;;;;;;26.63;13.30;;;2.50;99.90;;;;;;4989211;28;20050;-77
2023/11/22 06:50:18;;;;;;;27.33;14.05;;;2.60;99.90;;;;;;4986023;28;20033;-80
2023/11/22 06:52:48;;;;;;;33.78;15.82;;;2.50;99.90;;;;;;4964386;28;20034;-78
2023/11/22 06:55:15;;;;;;;29.05;14.70;;;2.60;99.90;;;;;;4986076;28;20081;-77
2023/11/22 06:57:41;;;;;;;29.67;14.43;;;2.60;99.90;;;;;;4967068;28;20045;-77
2023/11/22 07:00:09;;;;;;;32.08;14.88;;;2.60;99.90;;;;;;4984903;28;20053;-78
2023/11/22 07:02:36;;;;;;;27.42;13.73;;;2.60;99.90;;;;;;4983852;28;20042;-81
2023/11/22 07:05:08;;;;;;;28.75;14.00;;;2.60;99.90;;;;;;4987113;28;20034;-81
2023/11/22 07:07:35;;;;;;;37.60;16.30;;;2.70;99.90;;;;;;4968559;28;20849;-82
2023/11/22 07:10:02;;;;;;;32.35;16.30;;;2.70;99.90;;;;;;4972245;28;20038;-78
2023/11/22 07:12:29;;;;;;;31.90;15.50;;;2.70;99.90;;;;;;4987841;28;20054;-78
2023/11/22 07:14:55;;;;;;;32.85;15.98;;;2.80;99.90;;;;;;4988024;28;20056;-81
2023/11/22 07:17:22;;;;;;;33.42;16.02;;;2.80;99.90;;;;;;4950350;28;20045;-76
2023/11/22 07:19:48;;;;;;;35.70;15.45;;;2.80;99.90;;;;;;4989326;28;20495;-77
2023/11/22 07:22:15;;;;;;;33.17;16.23;;;2.80;99.90;;;;;;4971133;28;20042;-81
2023/11/22 07:24:47;;;;;;;35.03;17.23;;;2.90;99.90;;;;;;4972453;28;20564;-79
2023/11/22 07:27:14;;;;;;;30.48;15.40;;;2.90;99.90;;;;;;4970901;28;20057;-83
2023/11/22 07:29:42;;;;;;;49.63;22.95;;;3.00;99.90;;;;;;4986496;28;20034;-74
2023/11/22 07:32:09;;;;;;;39.58;18.77;;;3.00;99.90;;;;;;4983631;28;20053;-82
2023/11/22 07:34:36;;;;;;;34.87;16.13;;;3.00;99.90;;;;;;4955000;28;20046;-81
2023/11/22 07:37:03;;;;;;;41.47;19.55;;;3.10;99.90;;;;;;4964410;28;20053;-74
2023/11/22 07:39:29;;;;;;;38.20;18.08;;;3.10;99.90;;;;;;4951972;28;20045;-76
2023/11/22 07:41:56;;;;;;;36.85;18.90;;;3.20;99.90;;;;;;4954302;28;20045;-78
2023/11/22 07:44:23;;;;;;;42.30;18.90;;;3.20;99.90;;;;;;4986271;28;20042;-80
2023/11/22 07:46:51;;;;;;;38.63;18.58;;;3.30;99.90;;;;;;4987712;28;20054;-78
2023/11/22 07:49:21;;;;;;;40.50;19.05;;;3.40;99.90;;;;;;4988042;28;20548;-81
2023/11/22 07:51:47;;;;;;;39.60;17.83;;;3.40;99.90;;;;;;4990211;28;20037;-75
2023/11/22 07:54:17;;;;;;;37.80;16.42;;;3.50;99.90;;;;;;4988405;28;20038;-78
2023/11/22 07:56:43;;;;;;;44.78;19.58;;;3.50;99.90;;;;;;4971742;28;20053;-78
2023/11/22 07:59:13;;;;;;;46.90;20.10;;;3.50;99.90;;;;;;4986733;28;20041;-81
2023/11/22 08:01:43;;;;;;;44.28;20.48;;;3.60;99.90;;;;;;4985980;28;20040;-81
2023/11/22 08:04:09;;;;;;;45.10;20.10;;;3.60;99.90;;;;;;4969272;28;20049;-80
2023/11/22 08:06:36;;;;;;;40.33;20.40;;;3.70;99.90;;;;;;5003309;28;20034;-75
2023/11/22 08:09:04;;;;;;;38.63;18.35;;;3.70;99.90;;;;;;4966962;28;20060;-79
2023/11/22 08:11:31;;;;;;;39.92;17.83;;;3.80;99.90;;;;;;4985375;28;20085;-80
2023/11/22 08:13:59;;;;;;;37.50;18.55;;;3.90;99.90;;;;;;4954418;28;20762;-81
2023/11/22 08:16:26;;;;;;;45.33;20.73;;;4.00;99.90;;;;;;4970838;28;20049;-83
2023/11/22 08:18:53;;;;;;;41.70;20.75;;;4.00;99.90;;;;;;4970533;28;20038;-81
2023/11/22 08:21:20;;;;;;;50.70;23.65;;;4.10;99.90;;;;;;4987083;28;20397;-78
2023/11/22 08:23:46;;;;;;;42.83;20.45;;;4.10;99.90;;;;;;5001300;28;20079;-82
2023/11/22 08:26:14;;;;;;;51.28;24.17;;;4.20;99.90;;;;;;4978488;28;20421;-74
2023/11/22 08:28:40;;;;;;;53.13;22.70;;;4.20;99.90;;;;;;4981126;28;20593;-81
2023/11/22 08:31:09;;;;;;;48.88;22.63;;;4.20;99.90;;;;;;4989554;28;20029;-81
2023/11/22 08:33:37;;;;;;;43.35;20.50;;;4.20;99.90;;;;;;4973348;28;20230;-81
2023/11/22 08:36:07;;;;;;;45.17;21.77;;;4.30;99.90;;;;;;4983739;28;20042;-80
2023/11/22 08:38:34;;;;;;;51.00;23.63;;;4.40;99.90;;;;;;4987102;28;20117;-82
2023/11/22 08:41:08;;;;;;;47.40;21.42;;;4.40;99.90;;;;;;4967522;28;20045;-78
2023/11/22 08:43:34;;;;;;;49.15;23.77;;;4.40;99.90;;;;;;4984790;28;20521;-77
2023/11/22 08:46:04;;;;;;;45.38;21.60;;;4.50;99.90;;;;;;4968417;28;20044;-77
2023/11/22 08:48:31;;;;;;;47.83;22.10;;;4.60;99.90;;;;;;4984805;28;20033;-79
2023/11/22 08:50:58;;;;;;;47.88;23.83;;;4.60;99.90;;;;;;4967193;28;20038;-77
2023/11/22 08:53:24;;;;;;;47.28;23.48;;;4.60;99.90;;;;;;4969600;28;20080;-75
2023/11/22 08:55:51;;;;;;;47.05;24.05;;;4.70;99.90;;;;;;4969706;28;20033;-74
2023/11/22 08:58:17;;;;;;;55.08;26.35;;;4.70;99.90;;;;;;4982915;28;20046;-76
2023/11/22 09:00:45;;;;;;;48.58;23.38;;;4.70;99.90;;;;;;4987912;28;20041;-77
2023/11/22 09:03:12;;;;;;;45.88;23.23;;;4.70;99.90;;;;;;4969093;28;20038;-75
2023/11/22 09:05:42;;;;;;;47.75;22.92;;;4.80;99.90;;;;;;4985186;28;20484;-82
2023/11/22 09:08:15;;;;;;;42.40;20.83;;;4.80;99.90;;;;;;4981545;28;20567;-76
2023/11/22 09:10:42;;;;;;;42.55;20.15;;;4.80;99.90;;;;;;4953044;28;20901;-82
2023/11/22 09:13:09;;;;;;;42.10;21.80;;;4.90;99.90;;;;;;4984267;28;20045;-78
2023/11/22 09:15:36;;;;;;;50.55;24.70;;;4.90;99.90;;;;;;4983091;28;20035;-79
2023/11/22 09:18:02;;;;;;;39.83;21.20;;;4.90;99.90;;;;;;4984363;28;20042;-80
2023/11/22 09:20:30;;;;;;;46.33;24.00;;;5.00;99.90;;;;;;4968421;28;20030;-80
2023/11/22 09:22:56;;;;;;;46.78;24.35;;;5.00;99.90;;;;;;4983811;28;20033;-78
2023/11/22 09:25:24;;;;;;;50.08;26.00;;;5.10;99.90;;;;;;4972141;28;20061;-76
2023/11/22 09:27:55;;;;;;;47.08;24.75;;;5.10;99.90;;;;;;4970918;28;20049;-78
2023/11/22 09:30:38;;;;;;;43.92;25.27;;;5.20;99.90;;;;;;4968649;28;20049;-80
2023/11/22 09:33:07;;;;;;;45.72;27.08;;;5.20;99.90;;;;;;4981572;28;20038;-83
2023/11/22 09:35:35;;;;;;;50.50;27.88;;;5.30;99.90;;;;;;4953215;28;20038;-74
2023/11/22 09:38:02;;;;;;;46.67;27.38;;;5.30;99.90;;;;;;4964850;28;20531;-82
2023/11/22 09:40:31;;;;;;;47.20;29.00;;;5.30;99.90;;;;;;4963497;28;20049;-82
2023/11/22 09:43:00;;;;;;;44.92;26.67;;;5.40;99.90;;;;;;4986186;28;20261;-80
2023/11/22 09:45:26;;;;;;;41.55;26.67;;;5.50;99.90;;;;;;4965088;28;20042;-78
2023/11/22 09:47:54;;;;;;;44.88;27.55;;;5.60;99.90;;;;;;4992987;28;20044;-75
2023/11/22 09:50:26;;;;;;;39.22;25.42;;;5.70;99.90;;;;;;4986638;28;20029;-75
2023/11/22 09:52:55;;;;;;;43.22;26.67;;;5.70;99.90;;;;;;4983530;28;20045;-78
2023/11/22 09:55:27;;;;;;;38.97;24.58;;;5.70;99.90;;;;;;4982600;28;20046;-79
2023/11/22 09:57:56;;;;;;;36.70;23.20;;;5.80;99.90;;;;;;4982512;28;20753;-79
2023/11/22 10:00:27;;;;;;;36.08;24.05;;;5.90;99.90;;;;;;4981383;28;20050;-73
2023/11/22 10:02:53;;;;;;;38.42;24.05;;;5.90;99.90;;;;;;4984484;28;20065;-81
2023/11/22 10:05:20;;;;;;;33.70;22.58;;;5.90;99.90;;;;;;4965230;28;20050;-79
2023/11/22 10:07:50;;;;;;;36.53;23.25;;;6.00;99.90;;;;;;4982787;28;20033;-77
2023/11/22 10:10:18;;;;;;;35.95;23.02;;;6.00;99.90;;;;;;4967465;28;20737;-77
2023/11/22 10:12:45;;;;;;;40.78;24.85;;;6.00;99.90;;;;;;4980729;28;20037;-78
2023/11/22 10:15:18;;;;;;;37.70;23.65;;;6.10;99.90;;;;;;4961247;28;20039;-73
2023/11/22 10:17:57;;;;;;;38.72;24.73;;;6.20;99.90;;;;;;4984573;28;21000;-74
2023/11/22 10:20:34;;;;;;;33.85;21.67;;;6.20;99.90;;;;;;4989063;28;20038;-82
2023/11/22 10:23:01;;;;;;;34.28;21.23;;;6.20;99.90;;;;;;4982200;28;20041;-81
2023/11/22 10:25:29;;;;;;;33.63;22.17;;;6.30;99.90;;;;;;4987301;28;20034;-76
2023/11/22 10:27:55;;;;;;;35.03;21.60;;;6.30;99.90;;;;;;4968862;28;20049;-82
2023/11/22 10:30:22;;;;;;;37.47;22.70;;;6.30;99.90;;;;;;4981442;28;20033;-77
2023/11/22 10:32:49;;;;;;;31.48;20.38;;;6.40;99.90;;;;;;4967707;28;20033;-73
2023/11/22 10:35:15;;;;;;;35.60;22.17;;;6.40;99.90;;;;;;4984526;28;20049;-76
2023/11/22 10:37:45;;;;;;;34.63;21.20;;;6.50;99.90;;;;;;4985077;28;20046;-81
2023/11/22 10:40:15;;;;;;;30.00;20.58;;;6.50;99.90;;;;;;4982058;28;20044;-75
2023/11/22 10:42:43;;;;;;;32.03;22.58;;;6.60;99.90;;;;;;4984423;28;20038;-78
2023/11/22 10:45:10;;;;;;;31.05;20.40;;;6.70;99.90;;;;;;4968857;28;20034;-78
2023/11/22 10:47:39;;;;;;;33.65;21.15;;;6.80;99.90;;;;;;4986715;28;20392;-81
2023/11/22 10:50:08;;;;;;;31.80;20.92;;;6.90;99.90;;;;;;4985617;28;20037;-76
2023/11/22 10:52:38;;;;;;;31.25;20.88;;;7.00;99.90;;;;;;4968136;28;20030;-80
2023/11/22 10:55:08;;;;;;;27.48;19.00;;;7.00;99.90;;;;;;4973064;28;20041;-79
2023/11/22 10:57:44;;;;;;;23.05;16.67;;;6.90;99.90;;;;;;4986853;28;20440;-80
2023/11/22 11:00:13;;;;;;;26.45;18.90;;;6.90;99.90;;;;;;4984529;28;20049;-82
2023/11/22 11:02:51;;;;;;;27.67;17.45;;;6.90;99.90;;;;;;4961847;28;20393;-75
2023/11/22 11:05:30;;;;;;;24.95;18.10;;;6.80;99.90;;;;;;4969472;28;20049;-78
2023/11/22 11:08:12;;;;;;;27.55;17.85;;;6.80;99.90;;;;;;4984961;28;20033;-81
2023/11/22 11:10:43;;;;;;;23.58;16.30;;;6.70;99.90;;;;;;4981787;28;20034;-76
2023/11/22 11:13:10;;;;;;;23.50;15.30;;;6.70;99.90;;;;;;4984166;28;20038;-75
2023/11/22 11:15:43;;;;;;;23.55;17.27;;;6.70;99.90;;;;;;4986618;28;20030;-82
2023/11/22 11:18:12;;;;;;;24.83;17.17;;;6.70;99.90;;;;;;4986521;28;20029;-84
2023/11/22 11:20:53;;;;;;;22.02;16.20;;;6.80;99.90;;;;;;4969713;28;20111;-83
2023/11/22 11:23:22;;;;;;;23.63;16.17;;;6.80;99.90;;;;;;4966065;28;20042;-76
2023/11/22 11:26:08;;;;;;;23.48;16.63;;;6.70;99.90;;;;;;4987277;28;20145;-80
2023/11/22 11:28:45;;;;;;;23.17;16.42;;;6.70;99.90;;;;;;4986646;28;20045;-79
2023/11/22 11:31:12;;;;;;;28.55;18.60;;;6.80;99.90;;;;;;4984316;28;20484;-84
2023/11/22 11:33:48;;;;;;;25.17;17.85;;;6.90;99.90;;;;;;4969238;28;20045;-80
2023/11/22 11:36:31;;;;;;;25.88;18.92;;;6.90;99.90;;;;;;4988040;28;20026;-82
2023/11/22 11:39:03;;;;;;;25.23;19.17;;;6.90;99.90;;;;;;4989277;28;20093;-81
2023/11/22 11:41:33;;;;;;;22.38;16.40;;;6.90;99.90;;;;;;4990328;28;20048;-80
2023/11/22 11:44:02;;;;;;;22.95;16.08;;;6.90;99.90;;;;;;4987390;28;20060;-81
2023/11/22 11:46:30;;;;;;;21.67;16.85;;;6.80;99.90;;;;;;4956571;28;20405;-82
2023/11/22 11:48:56;;;;;;;26.23;18.52;;;6.90;99.90;;;;;;4967826;28;20053;-79
2023/11/22 11:51:27;;;;;;;27.52;18.35;;;6.90;99.90;;;;;;4984782;28;20048;-81
2023/11/22 11:53:55;;;;;;;28.88;19.80;;;6.90;99.90;;;;;;4984084;28;20038;-79
2023/11/22 11:56:22;;;;;;;26.90;19.05;;;6.90;99.90;;;;;;4988134;28;20537;-77
2023/11/22 11:58:50;;;;;;;25.80;20.10;;;6.90;99.90;;;;;;4987874;28;20038;-82
2023/11/22 12:01:17;;;;;;;28.10;20.90;;;6.90;99.90;;;;;;4980118;28;20034;-76
2023/11/22 12:03:43;;;;;;;33.97;23.25;;;7.00;99.90;;;;;;4971881;28;20072;-77
2023/11/22 12:06:10;;;;;;;33.95;23.25;;;7.00;99.90;;;;;;4987036;28;20025;-78
2023/11/22 12:08:36;;;;;;;32.97;25.63;;;7.00;99.90;;;;;;4987396;28;20033;-77
2023/11/22 12:11:04;;;;;;;31.13;22.92;;;7.00;99.90;;;;;;5003830;28;20041;-81
2023/11/22 12:13:31;;;;;;;32.08;22.23;;;7.00;99.90;;;;;;4988261;28;20034;-73
2023/11/22 12:15:58;;;;;;;31.02;22.90;;;7.00;99.90;;;;;;4986741;28;21316;-77
2023/11/22 12:18:24;;;;;;;28.83;21.40;;;6.90;99.90;;;;;;4968737;28;20045;-79
2023/11/22 12:20:58;;;;;;;29.25;21.38;;;6.90;99.90;;;;;;4984500;28;20041;-79
2023/11/22 12:23:27;;;;;;;28.60;20.70;;;6.90;99.90;;;;;;4969247;28;20477;-83
2023/11/22 12:25:55;;;;;;;30.42;23.17;;;6.90;99.90;;;;;;4968784;28;20585;-81
2023/11/22 12:28:27;;;;;;;28.40;19.77;;;6.90;99.90;;;;;;4984184;28;20750;-75
2023/11/22 12:30:54;;;;;;;31.20;22.43;;;6.90;99.90;;;;;;4987029;28;20698;-79
2023/11/22 12:33:20;;;;;;;30.02;20.98;;;6.80;99.90;;;;;;4963987;28;20766;-81
2023/11/22 12:35:48;;;;;;;30.13;20.27;;;6.80;99.90;;;;;;4970900;28;20119;-78
2023/11/22 12:38:16;;;;;;;28.38;20.50;;;6.90;99.90;;;;;;4998699;28;20042;-81
2023/11/22 12:40:49;;;;;;;29.23;19.80;;;6.90;99.90;;;;;;4971703;28;20173;-78